^^
Station Historical Data
Daily Summary for September 16, 2017 Units:  English    Metric   Both
« Previous Day
Next Day »
Daily Weekly Monthly Yearly Custom
  High: Low: Average:
Temperature: 82.8 °F 64.5 °F 71.7 °F
Dew Point: 70.2 °F 63.6 °F 67.1 °F
Humidity: 97% 63% 87%
Wind Speed: 2.0mph 0.0mph 0.3mph
Wind Gust: 10.0mph - -
Wind- - SSW
Pressure: 30.17 in 30.10 in -
Precipitation: 0.00 in    
Historical Graphs
 
 
Tabular Data for September 16, 2017
Time Temperature Dew Point Pressure Wind Wind Speed Wind Gust Humidity Rainfall Rate (Hourly) Conditions
00:00 68.0 °F 65.6 °F 30.10 in Calm   1.0 mph 92% 0.00 in FEW
00:15 67.9 °F 65.5 °F 30.11 in Calm     92% 0.00 in CLR
00:30 67.6 °F 65.5 °F 30.11 in Calm   2.0 mph 93% 0.00 in CLR
00:45 67.3 °F 65.2 °F 30.11 in Calm   2.0 mph 93% 0.00 in CLR
01:00 67.3 °F 65.5 °F 30.11 in Calm   1.0 mph 94% 0.00 in CLR
02:15 66.6 °F 65.1 °F 30.11 in Calm     95% 0.00 in CLR
02:30 66.4 °F 64.9 °F 30.10 in Calm     95% 0.00 in CLR
02:45 66.1 °F 64.9 °F 30.10 in Calm     96% 0.00 in CLR
03:00 66.2 °F 65.1 °F 30.10 in Calm   1.0 mph 96% 0.00 in CLR
03:15 66.0 °F 64.8 °F 30.10 in Calm     96% 0.00 in CLR
03:30 66.0 °F 64.8 °F 30.11 in Calm   1.0 mph 96% 0.00 in CLR
03:45 65.8 °F 64.6 °F 30.11 in Calm   1.0 mph 96% 0.00 in CLR
04:00 65.6 °F 64.4 °F 30.11 in Calm   1.0 mph 96% 0.00 in CLR
04:15 65.1 °F 64.0 °F 30.11 in Calm     96% 0.00 in CLR
04:30 65.9 °F 65.0 °F 30.11 in Calm     97% 0.00 in CLR
04:45 65.9 °F 65.0 °F 30.11 in Calm     97% 0.00 in CLR
05:00 65.6 °F 64.4 °F 30.11 in Calm     96% 0.00 in CLR
05:15 65.0 °F 63.8 °F 30.11 in Calm     96% 0.00 in CLR
05:30 65.2 °F 64.3 °F 30.12 in Calm     97% 0.00 in CLR
05:45 65.2 °F 64.3 °F 30.12 in Calm     97% 0.00 in CLR
06:00 65.0 °F 64.1 °F 30.12 in Calm     97% 0.00 in CLR
06:15 64.7 °F 63.9 °F 30.13 in Calm   1.0 mph 97% 0.00 in FEW
06:30 64.7 °F 63.8 °F 30.13 in Calm   1.0 mph 97% 0.00 in FEW
06:45 64.5 °F 63.6 °F 30.14 in Calm   1.0 mph 97% 0.00 in FEW
07:00 64.5 °F 63.6 °F 30.15 in Calm     97% 0.00 in FEW
07:15 64.7 °F 63.8 °F 30.15 in Calm   1.0 mph 97% 0.00 in FEW
07:30 64.6 °F 63.7 °F 30.16 in Calm   1.0 mph 97% 0.00 in FEW
07:45 64.7 °F 63.9 °F 30.16 in Calm   1.0 mph 97% 0.00 in FEW
08:00 65.2 °F 64.3 °F 30.16 in Calm     97% 0.00 in FEW
08:15 65.8 °F 64.9 °F 30.16 in Calm     97% 0.00 in CLR
08:30 66.7 °F 65.8 °F 30.16 in Calm   1.0 mph 97% 0.00 in CLR
08:45 67.2 °F 66.3 °F 30.17 in Calm   3.0 mph 97% 0.00 in CLR
09:00 67.7 °F 66.9 °F 30.17 in Calm   1.0 mph 97% 0.00 in CLR
09:15 68.3 °F 67.4 °F 30.17 in NNW 1.0 mph 4.0 mph 97% 0.00 in CLR
09:30 69.5 °F 68.6 °F 30.17 in NNE 1.0 mph 4.0 mph 97% 0.00 in CLR
10:00 70.9 °F 68.1 °F 30.17 in Calm   2.0 mph 91% 0.00 in CLR
10:15 71.8 °F 68.4 °F 30.17 in Calm   3.0 mph 89% 0.00 in OVC
10:30 72.2 °F 68.1 °F 30.17 in Calm   3.0 mph 87% 0.00 in OVC
10:45 73.6 °F 69.2 °F 30.17 in Calm   5.0 mph 86% 0.00 in OVC
11:00 75.0 °F 69.1 °F 30.17 in Calm   5.0 mph 82% 0.00 in OVC
11:15 75.7 °F 69.1 °F 30.17 in SE 2.0 mph 4.0 mph 80% 0.00 in OVC
11:30 75.4 °F 69.5 °F 30.17 in WNW 1.0 mph 6.0 mph 82% 0.00 in OVC
11:45 75.6 °F 69.3 °F 30.17 in WNW 1.0 mph 5.0 mph 81% 0.00 in OVC
12:00 75.5 °F 69.3 °F 30.17 in NW 1.0 mph 6.0 mph 81% 0.00 in OVC
12:15 76.3 °F 70.0 °F 30.16 in Calm   5.0 mph 81% 0.00 in OVC
12:30 76.9 °F 69.5 °F 30.16 in East 2.0 mph 5.0 mph 78% 0.00 in OVC
12:45 77.6 °F 69.8 °F 30.16 in SSW 1.0 mph 5.0 mph 77% 0.00 in OVC
13:00 77.0 °F 69.6 °F 30.16 in West 1.0 mph 6.0 mph 78% 0.00 in OVC
13:15 77.1 °F 69.3 °F 30.16 in South 2.0 mph 7.0 mph 77% 0.00 in BKN
13:30 78.6 °F 70.0 °F 30.15 in ENE 1.0 mph 5.0 mph 75% 0.00 in BKN
13:45 78.4 °F 70.2 °F 30.14 in Calm   6.0 mph 76% 0.00 in BKN
14:00 79.4 °F 70.0 °F 30.14 in South 1.0 mph 5.0 mph 73% 0.00 in BKN
14:15 79.6 °F 69.8 °F 30.14 in South 2.0 mph 10.0 mph 72% 0.00 in BKN
14:30 79.8 °F 69.6 °F 30.13 in WNW 1.0 mph 7.0 mph 71% 0.00 in BKN
14:45 80.4 °F 69.7 °F 30.13 in SSW 1.0 mph 5.0 mph 70% 0.00 in BKN
15:00 80.8 °F 70.1 °F 30.12 in West 1.0 mph 4.0 mph 70% 0.00 in BKN
15:15 81.1 °F 69.1 °F 30.12 in SSW 2.0 mph 4.0 mph 67% 0.00 in SCT
15:30 81.2 °F 69.2 °F 30.12 in Calm   5.0 mph 67% 0.00 in SCT
15:45 81.4 °F 68.5 °F 30.12 in Calm   5.0 mph 65% 0.00 in SCT
16:00 80.0 °F 68.1 °F 30.12 in Calm   4.0 mph 67% 0.00 in SCT
16:15 81.2 °F 68.3 °F 30.12 in East 1.0 mph 3.0 mph 65% 0.00 in SCT
16:30 82.8 °F 68.9 °F 30.12 in Calm   2.0 mph 63% 0.00 in SCT
16:45 82.1 °F 69.6 °F 30.12 in SSW 2.0 mph 5.0 mph 66% 0.00 in SCT
17:00 79.7 °F 69.9 °F 30.12 in SW 1.0 mph 4.0 mph 72% 0.00 in SCT
17:15 80.3 °F 69.2 °F 30.12 in Calm   4.0 mph 69% 0.00 in SCT
17:30 80.6 °F 68.6 °F 30.12 in South 1.0 mph 4.0 mph 67% 0.00 in SCT
17:45 79.8 °F 68.7 °F 30.12 in SSW 1.0 mph 4.0 mph 69% 0.00 in SCT
18:00 78.0 °F 68.3 °F 30.13 in Calm   6.0 mph 72% 0.00 in SCT
18:15 76.6 °F 68.4 °F 30.13 in Calm   2.0 mph 76% 0.00 in FEW
18:30 75.5 °F 68.2 °F 30.13 in Calm   1.0 mph 78% 0.00 in FEW
18:45 74.7 °F 68.5 °F 30.14 in Calm     81% 0.00 in FEW
19:00 73.8 °F 68.3 °F 30.14 in Calm     83% 0.00 in FEW
19:15 73.1 °F 68.3 °F 30.14 in Calm   1.0 mph 85% 0.00 in CLR
19:30 72.4 °F 68.3 °F 30.14 in Calm     87% 0.00 in CLR
19:45 72.1 °F 68.3 °F 30.14 in Calm   1.0 mph 88% 0.00 in CLR
20:00 71.7 °F 68.3 °F 30.14 in Calm     89% 0.00 in CLR
20:15 71.1 °F 68.0 °F 30.14 in Calm   1.0 mph 90% 0.00 in CLR
20:30 70.8 °F 68.0 °F 30.15 in Calm   1.0 mph 91% 0.00 in CLR
20:45 70.5 °F 67.7 °F 30.14 in Calm   1.0 mph 91% 0.00 in CLR
21:00 70.1 °F 67.7 °F 30.15 in Calm   1.0 mph 92% 0.00 in CLR
21:15 69.8 °F 67.4 °F 30.15 in Calm   1.0 mph 92% 0.00 in CLR
21:30 69.8 °F 67.6 °F 30.14 in Calm   1.0 mph 93% 0.00 in CLR
21:45 69.6 °F 67.5 °F 30.14 in Calm   1.0 mph 93% 0.00 in CLR
22:00 69.5 °F 67.4 °F 30.14 in Calm     93% 0.00 in CLR
22:15 69.3 °F 67.2 °F 30.15 in Calm     93% 0.00 in CLR
22:30 68.9 °F 66.8 °F 30.15 in Calm     93% 0.00 in CLR
22:45 68.8 °F 67.0 °F 30.15 in Calm   1.0 mph 94% 0.00 in CLR
23:00 68.5 °F 66.7 °F 30.15 in Calm     94% 0.00 in CLR
23:30 68.0 °F 66.2 °F 30.15 in Calm     94% 0.00 in CLR
23:45 67.7 °F 65.9 °F 30.15 in Calm     94% 0.00 in CLR
TarryTown NY Weather
Compliments of Weather Underground - 1.5 mb